sensor_id;sensor_type;location;lat;lon;timestamp;P1;durP1;ratioP1;P2;durP2;ratioP2
14141;SDS011;7151;52.246;4.820;2024-03-08T00:00:40;15.53;;;7.97;;
14141;SDS011;7151;52.246;4.820;2024-03-08T00:03:07;16.50;;;9.70;;
14141;SDS011;7151;52.246;4.820;2024-03-08T00:05:35;13.90;;;7.70;;
14141;SDS011;7151;52.246;4.820;2024-03-08T00:08:01;12.43;;;8.57;;
14141;SDS011;7151;52.246;4.820;2024-03-08T00:10:26;10.87;;;7.73;;
14141;SDS011;7151;52.246;4.820;2024-03-08T00:12:53;12.53;;;7.80;;
14141;SDS011;7151;52.246;4.820;2024-03-08T00:15:19;13.37;;;7.77;;
14141;SDS011;7151;52.246;4.820;2024-03-08T00:17:48;14.10;;;8.40;;
14141;SDS011;7151;52.246;4.820;2024-03-08T00:20:13;14.40;;;9.00;;
14141;SDS011;7151;52.246;4.820;2024-03-08T00:22:39;19.50;;;9.43;;
14141;SDS011;7151;52.246;4.820;2024-03-08T00:25:06;15.27;;;8.37;;
14141;SDS011;7151;52.246;4.820;2024-03-08T00:27:35;15.00;;;8.30;;
14141;SDS011;7151;52.246;4.820;2024-03-08T00:30:01;17.37;;;8.47;;
14141;SDS011;7151;52.246;4.820;2024-03-08T00:32:27;11.83;;;8.17;;
14141;SDS011;7151;52.246;4.820;2024-03-08T00:34:53;13.80;;;8.63;;
14141;SDS011;7151;52.246;4.820;2024-03-08T00:37:19;12.60;;;7.90;;
14141;SDS011;7151;52.246;4.820;2024-03-08T00:39:47;13.93;;;8.67;;
14141;SDS011;7151;52.246;4.820;2024-03-08T00:42:14;15.73;;;8.50;;
14141;SDS011;7151;52.246;4.820;2024-03-08T00:44:40;13.77;;;8.57;;
14141;SDS011;7151;52.246;4.820;2024-03-08T00:47:05;12.50;;;7.97;;
14141;SDS011;7151;52.246;4.820;2024-03-08T00:49:31;12.80;;;8.77;;
14141;SDS011;7151;52.246;4.820;2024-03-08T00:51:56;17.00;;;9.83;;
14141;SDS011;7151;52.246;4.820;2024-03-08T00:54:22;11.87;;;7.50;;
14141;SDS011;7151;52.246;4.820;2024-03-08T00:56:48;13.20;;;8.37;;
14141;SDS011;7151;52.246;4.820;2024-03-08T00:59:14;15.20;;;8.27;;
14141;SDS011;7151;52.246;4.820;2024-03-08T01:01:40;12.27;;;8.20;;
14141;SDS011;7151;52.246;4.820;2024-03-08T01:04:06;15.97;;;9.33;;
14141;SDS011;7151;52.246;4.820;2024-03-08T01:06:32;14.00;;;8.07;;
14141;SDS011;7151;52.246;4.820;2024-03-08T01:08:58;10.97;;;7.53;;
14141;SDS011;7151;52.246;4.820;2024-03-08T01:11:24;14.83;;;7.90;;
14141;SDS011;7151;52.246;4.820;2024-03-08T01:13:50;14.00;;;9.07;;
14141;SDS011;7151;52.246;4.820;2024-03-08T01:16:15;15.77;;;8.80;;
14141;SDS011;7151;52.246;4.820;2024-03-08T01:18:45;13.37;;;8.57;;
14141;SDS011;7151;52.246;4.820;2024-03-08T01:21:14;12.07;;;8.03;;
14141;SDS011;7151;52.246;4.820;2024-03-08T01:23:40;15.60;;;8.30;;
14141;SDS011;7151;52.246;4.820;2024-03-08T01:26:09;12.30;;;8.30;;
14141;SDS011;7151;52.246;4.820;2024-03-08T01:28:34;11.73;;;7.37;;
14141;SDS011;7151;52.246;4.820;2024-03-08T01:31:00;11.60;;;7.93;;
14141;SDS011;7151;52.246;4.820;2024-03-08T01:33:26;12.67;;;8.13;;
14141;SDS011;7151;52.246;4.820;2024-03-08T01:35:52;12.40;;;8.50;;
14141;SDS011;7151;52.246;4.820;2024-03-08T01:38:19;13.67;;;8.07;;
14141;SDS011;7151;52.246;4.820;2024-03-08T01:40:46;15.37;;;8.23;;
14141;SDS011;7151;52.246;4.820;2024-03-08T01:45:48;12.90;;;8.20;;
14141;SDS011;7151;52.246;4.820;2024-03-08T01:48:16;14.07;;;8.43;;
14141;SDS011;7151;52.246;4.820;2024-03-08T01:50:43;13.00;;;8.33;;
14141;SDS011;7151;52.246;4.820;2024-03-08T01:53:10;18.70;;;9.10;;
14141;SDS011;7151;52.246;4.820;2024-03-08T01:55:37;13.43;;;8.20;;
14141;SDS011;7151;52.246;4.820;2024-03-08T01:58:07;10.67;;;8.20;;
14141;SDS011;7151;52.246;4.820;2024-03-08T02:00:35;11.37;;;7.40;;
14141;SDS011;7151;52.246;4.820;2024-03-08T02:03:01;12.63;;;8.23;;
14141;SDS011;7151;52.246;4.820;2024-03-08T02:05:27;13.10;;;8.13;;
14141;SDS011;7151;52.246;4.820;2024-03-08T02:07:53;13.97;;;8.73;;
14141;SDS011;7151;52.246;4.820;2024-03-08T02:10:20;13.30;;;9.03;;
14141;SDS011;7151;52.246;4.820;2024-03-08T02:12:47;14.33;;;8.90;;
14141;SDS011;7151;52.246;4.820;2024-03-08T02:15:13;15.57;;;8.23;;
14141;SDS011;7151;52.246;4.820;2024-03-08T02:17:40;13.43;;;8.23;;
14141;SDS011;7151;52.246;4.820;2024-03-08T02:20:06;13.83;;;9.23;;
14141;SDS011;7151;52.246;4.820;2024-03-08T02:22:34;15.90;;;8.90;;
14141;SDS011;7151;52.246;4.820;2024-03-08T02:24:59;13.03;;;8.43;;
14141;SDS011;7151;52.246;4.820;2024-03-08T02:27:27;10.67;;;7.93;;
14141;SDS011;7151;52.246;4.820;2024-03-08T02:29:55;14.97;;;9.07;;
14141;SDS011;7151;52.246;4.820;2024-03-08T02:32:22;12.20;;;8.33;;
14141;SDS011;7151;52.246;4.820;2024-03-08T02:34:50;14.23;;;8.57;;
14141;SDS011;7151;52.246;4.820;2024-03-08T02:37:20;14.73;;;8.77;;
14141;SDS011;7151;52.246;4.820;2024-03-08T02:39:46;12.23;;;7.93;;
14141;SDS011;7151;52.246;4.820;2024-03-08T02:42:12;15.63;;;8.47;;
14141;SDS011;7151;52.246;4.820;2024-03-08T02:44:38;18.67;;;8.93;;
14141;SDS011;7151;52.246;4.820;2024-03-08T02:47:09;13.27;;;8.10;;
14141;SDS011;7151;52.246;4.820;2024-03-08T02:49:35;13.73;;;8.23;;
14141;SDS011;7151;52.246;4.820;2024-03-08T02:52:02;15.27;;;9.70;;
14141;SDS011;7151;52.246;4.820;2024-03-08T02:54:29;15.10;;;8.50;;
14141;SDS011;7151;52.246;4.820;2024-03-08T02:56:55;15.10;;;8.87;;
14141;SDS011;7151;52.246;4.820;2024-03-08T02:59:21;12.83;;;8.30;;
14141;SDS011;7151;52.246;4.820;2024-03-08T03:01:47;13.63;;;8.40;;
14141;SDS011;7151;52.246;4.820;2024-03-08T03:04:12;11.80;;;7.70;;
14141;SDS011;7151;52.246;4.820;2024-03-08T03:06:38;16.37;;;8.00;;
14141;SDS011;7151;52.246;4.820;2024-03-08T03:09:03;14.33;;;8.40;;
14141;SDS011;7151;52.246;4.820;2024-03-08T03:11:31;12.13;;;7.67;;
14141;SDS011;7151;52.246;4.820;2024-03-08T03:13:57;12.97;;;8.80;;
14141;SDS011;7151;52.246;4.820;2024-03-08T03:16:22;15.50;;;8.93;;
14141;SDS011;7151;52.246;4.820;2024-03-08T03:18:49;15.40;;;8.80;;
14141;SDS011;7151;52.246;4.820;2024-03-08T03:21:14;13.37;;;8.73;;
14141;SDS011;7151;52.246;4.820;2024-03-08T03:23:40;14.30;;;9.27;;
14141;SDS011;7151;52.246;4.820;2024-03-08T03:26:07;15.87;;;8.83;;
14141;SDS011;7151;52.246;4.820;2024-03-08T03:28:33;17.63;;;9.27;;
14141;SDS011;7151;52.246;4.820;2024-03-08T03:30:59;15.13;;;9.37;;
14141;SDS011;7151;52.246;4.820;2024-03-08T03:33:25;14.20;;;8.60;;
14141;SDS011;7151;52.246;4.820;2024-03-08T03:35:51;14.93;;;8.77;;
14141;SDS011;7151;52.246;4.820;2024-03-08T03:38:19;12.77;;;8.63;;
14141;SDS011;7151;52.246;4.820;2024-03-08T03:40:48;17.60;;;9.60;;
14141;SDS011;7151;52.246;4.820;2024-03-08T03:43:17;16.57;;;9.50;;
14141;SDS011;7151;52.246;4.820;2024-03-08T03:45:43;12.40;;;8.67;;
14141;SDS011;7151;52.246;4.820;2024-03-08T03:48:08;18.03;;;9.87;;
14141;SDS011;7151;52.246;4.820;2024-03-08T03:50:34;14.80;;;8.43;;
14141;SDS011;7151;52.246;4.820;2024-03-08T03:53:00;14.53;;;8.63;;
14141;SDS011;7151;52.246;4.820;2024-03-08T03:55:27;15.83;;;9.20;;
14141;SDS011;7151;52.246;4.820;2024-03-08T03:57:53;13.03;;;9.13;;
14141;SDS011;7151;52.246;4.820;2024-03-08T04:00:19;12.20;;;8.60;;
14141;SDS011;7151;52.246;4.820;2024-03-08T04:02:45;13.60;;;8.57;;
14141;SDS011;7151;52.246;4.820;2024-03-08T04:05:11;12.97;;;8.83;;
14141;SDS011;7151;52.246;4.820;2024-03-08T04:07:37;15.90;;;8.50;;
14141;SDS011;7151;52.246;4.820;2024-03-08T04:10:04;13.20;;;9.50;;
14141;SDS011;7151;52.246;4.820;2024-03-08T04:12:32;17.30;;;9.77;;
14141;SDS011;7151;52.246;4.820;2024-03-08T04:14:58;16.27;;;8.90;;
14141;SDS011;7151;52.246;4.820;2024-03-08T04:17:23;16.97;;;9.47;;
14141;SDS011;7151;52.246;4.820;2024-03-08T04:19:49;16.03;;;9.27;;
14141;SDS011;7151;52.246;4.820;2024-03-08T04:22:15;13.07;;;8.60;;
14141;SDS011;7151;52.246;4.820;2024-03-08T04:24:42;18.70;;;10.30;;
14141;SDS011;7151;52.246;4.820;2024-03-08T04:27:08;15.93;;;9.37;;
14141;SDS011;7151;52.246;4.820;2024-03-08T04:29:34;15.97;;;9.37;;
14141;SDS011;7151;52.246;4.820;2024-03-08T04:32:02;16.77;;;10.63;;
14141;SDS011;7151;52.246;4.820;2024-03-08T04:34:29;16.30;;;9.87;;
14141;SDS011;7151;52.246;4.820;2024-03-08T04:36:56;12.33;;;8.33;;
14141;SDS011;7151;52.246;4.820;2024-03-08T04:39:22;14.40;;;8.63;;
14141;SDS011;7151;52.246;4.820;2024-03-08T04:41:48;13.03;;;8.70;;
14141;SDS011;7151;52.246;4.820;2024-03-08T04:44:15;15.23;;;10.27;;
14141;SDS011;7151;52.246;4.820;2024-03-08T04:46:42;16.30;;;10.00;;
14141;SDS011;7151;52.246;4.820;2024-03-08T04:49:08;13.37;;;8.53;;
14141;SDS011;7151;52.246;4.820;2024-03-08T04:51:33;13.20;;;8.67;;
14141;SDS011;7151;52.246;4.820;2024-03-08T04:53:59;13.70;;;9.27;;
14141;SDS011;7151;52.246;4.820;2024-03-08T04:56:25;15.30;;;9.83;;
14141;SDS011;7151;52.246;4.820;2024-03-08T04:58:50;15.73;;;10.00;;
14141;SDS011;7151;52.246;4.820;2024-03-08T05:01:16;15.77;;;9.90;;
14141;SDS011;7151;52.246;4.820;2024-03-08T05:03:42;16.23;;;9.63;;
14141;SDS011;7151;52.246;4.820;2024-03-08T05:06:07;14.90;;;9.70;;
14141;SDS011;7151;52.246;4.820;2024-03-08T05:08:33;17.83;;;9.93;;
14141;SDS011;7151;52.246;4.820;2024-03-08T05:10:59;15.77;;;10.10;;
14141;SDS011;7151;52.246;4.820;2024-03-08T05:13:28;14.37;;;9.77;;
14141;SDS011;7151;52.246;4.820;2024-03-08T05:15:57;15.47;;;9.37;;
14141;SDS011;7151;52.246;4.820;2024-03-08T05:18:23;17.30;;;10.67;;
14141;SDS011;7151;52.246;4.820;2024-03-08T05:20:49;12.67;;;9.37;;
14141;SDS011;7151;52.246;4.820;2024-03-08T05:23:16;14.37;;;9.30;;
14141;SDS011;7151;52.246;4.820;2024-03-08T05:25:44;18.93;;;11.00;;
14141;SDS011;7151;52.246;4.820;2024-03-08T05:28:12;14.63;;;9.03;;
14141;SDS011;7151;52.246;4.820;2024-03-08T05:30:38;14.20;;;9.80;;
14141;SDS011;7151;52.246;4.820;2024-03-08T05:33:04;19.43;;;10.13;;
14141;SDS011;7151;52.246;4.820;2024-03-08T05:35:29;15.20;;;9.60;;
14141;SDS011;7151;52.246;4.820;2024-03-08T05:37:55;15.43;;;9.73;;
14141;SDS011;7151;52.246;4.820;2024-03-08T05:40:21;19.07;;;11.10;;
14141;SDS011;7151;52.246;4.820;2024-03-08T05:42:46;18.07;;;9.90;;
14141;SDS011;7151;52.246;4.820;2024-03-08T05:45:12;15.57;;;10.43;;
14141;SDS011;7151;52.246;4.820;2024-03-08T05:47:39;13.77;;;10.70;;
14141;SDS011;7151;52.246;4.820;2024-03-08T05:50:05;13.30;;;9.17;;
14141;SDS011;7151;52.246;4.820;2024-03-08T05:52:33;19.57;;;10.53;;
14141;SDS011;7151;52.246;4.820;2024-03-08T05:54:58;16.53;;;9.87;;
14141;SDS011;7151;52.246;4.820;2024-03-08T05:57:24;14.33;;;9.53;;
14141;SDS011;7151;52.246;4.820;2024-03-08T05:59:49;14.57;;;9.40;;
14141;SDS011;7151;52.246;4.820;2024-03-08T06:02:15;15.60;;;9.47;;
14141;SDS011;7151;52.246;4.820;2024-03-08T06:04:44;17.83;;;10.50;;
14141;SDS011;7151;52.246;4.820;2024-03-08T06:07:11;18.67;;;10.73;;
14141;SDS011;7151;52.246;4.820;2024-03-08T06:09:37;21.40;;;12.03;;
14141;SDS011;7151;52.246;4.820;2024-03-08T06:12:03;15.07;;;9.40;;
14141;SDS011;7151;52.246;4.820;2024-03-08T06:14:31;15.80;;;10.10;;
14141;SDS011;7151;52.246;4.820;2024-03-08T06:16:57;20.17;;;10.20;;
14141;SDS011;7151;52.246;4.820;2024-03-08T06:19:23;18.17;;;11.17;;
14141;SDS011;7151;52.246;4.820;2024-03-08T06:21:48;16.80;;;10.70;;
14141;SDS011;7151;52.246;4.820;2024-03-08T06:24:14;15.80;;;10.03;;
14141;SDS011;7151;52.246;4.820;2024-03-08T06:26:40;15.97;;;10.60;;
14141;SDS011;7151;52.246;4.820;2024-03-08T06:29:06;16.53;;;10.10;;
14141;SDS011;7151;52.246;4.820;2024-03-08T06:31:32;14.17;;;10.10;;
14141;SDS011;7151;52.246;4.820;2024-03-08T06:33:57;16.53;;;10.13;;
14141;SDS011;7151;52.246;4.820;2024-03-08T06:36:23;19.33;;;10.87;;
14141;SDS011;7151;52.246;4.820;2024-03-08T06:38:49;17.20;;;10.10;;
14141;SDS011;7151;52.246;4.820;2024-03-08T06:41:15;19.00;;;10.83;;
14141;SDS011;7151;52.246;4.820;2024-03-08T06:43:44;15.77;;;10.97;;
14141;SDS011;7151;52.246;4.820;2024-03-08T06:46:10;18.53;;;12.17;;
14141;SDS011;7151;52.246;4.820;2024-03-08T06:48:39;18.07;;;11.03;;
14141;SDS011;7151;52.246;4.820;2024-03-08T06:51:05;18.70;;;10.47;;
14141;SDS011;7151;52.246;4.820;2024-03-08T06:53:31;16.07;;;9.93;;
14141;SDS011;7151;52.246;4.820;2024-03-08T06:55:56;15.60;;;9.87;;
14141;SDS011;7151;52.246;4.820;2024-03-08T06:58:26;16.17;;;10.20;;
14141;SDS011;7151;52.246;4.820;2024-03-08T07:00:52;16.43;;;11.47;;
14141;SDS011;7151;52.246;4.820;2024-03-08T07:03:18;21.70;;;11.23;;
14141;SDS011;7151;52.246;4.820;2024-03-08T07:05:45;17.20;;;10.70;;
14141;SDS011;7151;52.246;4.820;2024-03-08T07:08:11;16.37;;;10.67;;
14141;SDS011;7151;52.246;4.820;2024-03-08T07:10:39;17.97;;;12.13;;
14141;SDS011;7151;52.246;4.820;2024-03-08T07:13:06;15.17;;;9.80;;
14141;SDS011;7151;52.246;4.820;2024-03-08T07:15:32;15.40;;;9.90;;
14141;SDS011;7151;52.246;4.820;2024-03-08T07:17:58;16.10;;;10.67;;
14141;SDS011;7151;52.246;4.820;2024-03-08T07:20:24;17.27;;;11.73;;
14141;SDS011;7151;52.246;4.820;2024-03-08T07:22:50;16.70;;;10.40;;
14141;SDS011;7151;52.246;4.820;2024-03-08T07:25:16;14.67;;;10.60;;
14141;SDS011;7151;52.246;4.820;2024-03-08T07:27:49;17.43;;;11.00;;
14141;SDS011;7151;52.246;4.820;2024-03-08T07:30:23;18.10;;;10.90;;
14141;SDS011;7151;52.246;4.820;2024-03-08T07:33:10;14.93;;;10.07;;
14141;SDS011;7151;52.246;4.820;2024-03-08T07:35:37;16.13;;;10.27;;
14141;SDS011;7151;52.246;4.820;2024-03-08T07:38:06;17.30;;;11.43;;
14141;SDS011;7151;52.246;4.820;2024-03-08T07:40:39;18.23;;;11.67;;
14141;SDS011;7151;52.246;4.820;2024-03-08T07:43:09;17.23;;;11.23;;
14141;SDS011;7151;52.246;4.820;2024-03-08T07:45:35;15.83;;;10.77;;
14141;SDS011;7151;52.246;4.820;2024-03-08T07:48:02;14.60;;;9.93;;
14141;SDS011;7151;52.246;4.820;2024-03-08T07:50:28;18.57;;;10.93;;
14141;SDS011;7151;52.246;4.820;2024-03-08T07:52:54;17.00;;;11.23;;
14141;SDS011;7151;52.246;4.820;2024-03-08T07:55:19;18.20;;;10.90;;
14141;SDS011;7151;52.246;4.820;2024-03-08T07:57:47;15.67;;;10.90;;
14141;SDS011;7151;52.246;4.820;2024-03-08T08:00:13;15.97;;;10.50;;
14141;SDS011;7151;52.246;4.820;2024-03-08T08:02:43;17.03;;;10.77;;
14141;SDS011;7151;52.246;4.820;2024-03-08T08:05:11;13.73;;;9.37;;
14141;SDS011;7151;52.246;4.820;2024-03-08T08:07:40;13.63;;;9.80;;
14141;SDS011;7151;52.246;4.820;2024-03-08T08:10:09;14.87;;;10.33;;
14141;SDS011;7151;52.246;4.820;2024-03-08T08:12:40;16.13;;;10.93;;
14141;SDS011;7151;52.246;4.820;2024-03-08T08:15:07;16.13;;;10.43;;
14141;SDS011;7151;52.246;4.820;2024-03-08T08:17:32;16.27;;;9.53;;
14141;SDS011;7151;52.246;4.820;2024-03-08T08:19:59;17.23;;;11.30;;
14141;SDS011;7151;52.246;4.820;2024-03-08T08:22:25;13.03;;;9.97;;
14141;SDS011;7151;52.246;4.820;2024-03-08T08:24:51;14.57;;;10.40;;
14141;SDS011;7151;52.246;4.820;2024-03-08T08:27:17;14.73;;;9.83;;
14141;SDS011;7151;52.246;4.820;2024-03-08T08:29:42;15.60;;;10.63;;
14141;SDS011;7151;52.246;4.820;2024-03-08T08:32:08;16.53;;;10.43;;
14141;SDS011;7151;52.246;4.820;2024-03-08T08:34:34;19.20;;;11.23;;
14141;SDS011;7151;52.246;4.820;2024-03-08T08:37:01;18.13;;;11.50;;
14141;SDS011;7151;52.246;4.820;2024-03-08T08:39:26;15.87;;;10.43;;
14141;SDS011;7151;52.246;4.820;2024-03-08T08:41:52;16.93;;;10.77;;
14141;SDS011;7151;52.246;4.820;2024-03-08T08:44:18;19.57;;;11.20;;
14141;SDS011;7151;52.246;4.820;2024-03-08T08:46:43;15.30;;;10.57;;
14141;SDS011;7151;52.246;4.820;2024-03-08T08:49:09;15.63;;;9.77;;
14141;SDS011;7151;52.246;4.820;2024-03-08T08:51:39;19.20;;;11.47;;
14141;SDS011;7151;52.246;4.820;2024-03-08T08:54:05;17.17;;;10.20;;
14141;SDS011;7151;52.246;4.820;2024-03-08T08:56:34;16.90;;;10.70;;
14141;SDS011;7151;52.246;4.820;2024-03-08T08:59:00;16.47;;;11.03;;
14141;SDS011;7151;52.246;4.820;2024-03-08T09:01:25;15.63;;;10.23;;
14141;SDS011;7151;52.246;4.820;2024-03-08T09:03:52;17.10;;;10.70;;
14141;SDS011;7151;52.246;4.820;2024-03-08T09:06:19;17.53;;;10.73;;
14141;SDS011;7151;52.246;4.820;2024-03-08T09:08:45;14.93;;;10.07;;
14141;SDS011;7151;52.246;4.820;2024-03-08T09:11:11;17.37;;;10.23;;
14141;SDS011;7151;52.246;4.820;2024-03-08T09:13:36;16.47;;;10.73;;
14141;SDS011;7151;52.246;4.820;2024-03-08T09:16:02;20.57;;;11.10;;
14141;SDS011;7151;52.246;4.820;2024-03-08T09:18:30;16.07;;;11.30;;
14141;SDS011;7151;52.246;4.820;2024-03-08T09:20:57;15.00;;;9.73;;
14141;SDS011;7151;52.246;4.820;2024-03-08T09:23:23;15.43;;;10.13;;
14141;SDS011;7151;52.246;4.820;2024-03-08T09:25:49;19.50;;;10.70;;
14141;SDS011;7151;52.246;4.820;2024-03-08T09:28:14;16.93;;;10.70;;
14141;SDS011;7151;52.246;4.820;2024-03-08T09:30:41;16.30;;;10.97;;
14141;SDS011;7151;52.246;4.820;2024-03-08T09:33:06;15.03;;;9.93;;
14141;SDS011;7151;52.246;4.820;2024-03-08T09:35:32;16.77;;;10.10;;
14141;SDS011;7151;52.246;4.820;2024-03-08T09:37:58;11.60;;;9.03;;
14141;SDS011;7151;52.246;4.820;2024-03-08T09:40:24;15.97;;;10.13;;
14141;SDS011;7151;52.246;4.820;2024-03-08T09:42:50;16.13;;;9.97;;
14141;SDS011;7151;52.246;4.820;2024-03-08T09:45:17;15.30;;;9.33;;
14141;SDS011;7151;52.246;4.820;2024-03-08T09:47:47;13.20;;;10.23;;
14141;SDS011;7151;52.246;4.820;2024-03-08T09:50:13;15.00;;;9.33;;
14141;SDS011;7151;52.246;4.820;2024-03-08T09:52:40;16.17;;;10.20;;
14141;SDS011;7151;52.246;4.820;2024-03-08T09:55:06;14.47;;;9.87;;
14141;SDS011;7151;52.246;4.820;2024-03-08T09:57:32;14.47;;;9.07;;
14141;SDS011;7151;52.246;4.820;2024-03-08T10:00:00;13.13;;;8.83;;
14141;SDS011;7151;52.246;4.820;2024-03-08T10:02:26;15.30;;;10.43;;
14141;SDS011;7151;52.246;4.820;2024-03-08T10:04:52;15.93;;;9.70;;
14141;SDS011;7151;52.246;4.820;2024-03-08T10:07:18;15.63;;;9.93;;
14141;SDS011;7151;52.246;4.820;2024-03-08T10:09:44;13.83;;;9.97;;
14141;SDS011;7151;52.246;4.820;2024-03-08T10:12:15;17.47;;;10.10;;
14141;SDS011;7151;52.246;4.820;2024-03-08T10:14:45;17.23;;;10.60;;
14141;SDS011;7151;52.246;4.820;2024-03-08T10:17:11;19.83;;;9.80;;
14141;SDS011;7151;52.246;4.820;2024-03-08T10:19:37;15.33;;;9.57;;
14141;SDS011;7151;52.246;4.820;2024-03-08T10:22:04;14.20;;;9.87;;
14141;SDS011;7151;52.246;4.820;2024-03-08T10:24:30;14.87;;;8.97;;
14141;SDS011;7151;52.246;4.820;2024-03-08T10:26:59;13.10;;;8.40;;
14141;SDS011;7151;52.246;4.820;2024-03-08T10:29:26;15.30;;;9.60;;
14141;SDS011;7151;52.246;4.820;2024-03-08T10:31:53;13.37;;;9.50;;
14141;SDS011;7151;52.246;4.820;2024-03-08T10:34:21;17.20;;;9.67;;
14141;SDS011;7151;52.246;4.820;2024-03-08T10:36:48;15.27;;;8.70;;
14141;SDS011;7151;52.246;4.820;2024-03-08T10:39:22;13.50;;;9.33;;
14141;SDS011;7151;52.246;4.820;2024-03-08T10:41:58;16.23;;;8.73;;
14141;SDS011;7151;52.246;4.820;2024-03-08T10:49:37;14.50;;;9.43;;
14141;SDS011;7151;52.246;4.820;2024-03-08T10:52:04;14.70;;;9.03;;
14141;SDS011;7151;52.246;4.820;2024-03-08T10:54:33;12.90;;;8.70;;
14141;SDS011;7151;52.246;4.820;2024-03-08T10:57:03;13.10;;;8.77;;
14141;SDS011;7151;52.246;4.820;2024-03-08T10:59:31;15.67;;;9.53;;
14141;SDS011;7151;52.246;4.820;2024-03-08T11:01:59;14.60;;;8.30;;
14141;SDS011;7151;52.246;4.820;2024-03-08T11:04:25;14.27;;;8.40;;
14141;SDS011;7151;52.246;4.820;2024-03-08T11:06:50;13.40;;;8.60;;
14141;SDS011;7151;52.246;4.820;2024-03-08T11:14:46;11.27;;;7.80;;
14141;SDS011;7151;52.246;4.820;2024-03-08T11:17:16;11.73;;;7.73;;
14141;SDS011;7151;52.246;4.820;2024-03-08T11:19:46;12.73;;;7.93;;
14141;SDS011;7151;52.246;4.820;2024-03-08T11:22:22;13.60;;;8.30;;
14141;SDS011;7151;52.246;4.820;2024-03-08T11:24:52;12.07;;;8.00;;
14141;SDS011;7151;52.246;4.820;2024-03-08T11:27:18;10.33;;;7.80;;
14141;SDS011;7151;52.246;4.820;2024-03-08T11:29:45;11.50;;;8.23;;
14141;SDS011;7151;52.246;4.820;2024-03-08T11:32:29;13.23;;;8.70;;
14141;SDS011;7151;52.246;4.820;2024-03-08T11:34:55;11.37;;;7.77;;
14141;SDS011;7151;52.246;4.820;2024-03-08T11:37:21;13.00;;;7.57;;
14141;SDS011;7151;52.246;4.820;2024-03-08T11:39:47;11.03;;;6.67;;
14141;SDS011;7151;52.246;4.820;2024-03-08T11:42:14;12.80;;;7.20;;
14141;SDS011;7151;52.246;4.820;2024-03-08T11:44:48;12.07;;;8.20;;
14141;SDS011;7151;52.246;4.820;2024-03-08T11:47:15;12.13;;;8.33;;
14141;SDS011;7151;52.246;4.820;2024-03-08T11:49:41;10.37;;;7.30;;
14141;SDS011;7151;52.246;4.820;2024-03-08T11:52:12;14.20;;;7.73;;
14141;SDS011;7151;52.246;4.820;2024-03-08T11:54:39;12.50;;;7.97;;
14141;SDS011;7151;52.246;4.820;2024-03-08T11:57:16;10.03;;;7.57;;
14141;SDS011;7151;52.246;4.820;2024-03-08T11:59:49;11.63;;;7.33;;
14141;SDS011;7151;52.246;4.820;2024-03-08T12:02:18;12.27;;;7.40;;
14141;SDS011;7151;52.246;4.820;2024-03-08T12:04:44;10.73;;;7.57;;
14141;SDS011;7151;52.246;4.820;2024-03-08T12:07:11;12.40;;;7.80;;
14141;SDS011;7151;52.246;4.820;2024-03-08T12:09:39;11.77;;;7.50;;
14141;SDS011;7151;52.246;4.820;2024-03-08T12:12:06;9.80;;;6.30;;
14141;SDS011;7151;52.246;4.820;2024-03-08T12:14:33;9.77;;;6.30;;
14141;SDS011;7151;52.246;4.820;2024-03-08T12:16:59;10.07;;;6.53;;
14141;SDS011;7151;52.246;4.820;2024-03-08T12:19:28;10.63;;;7.77;;
14141;SDS011;7151;52.246;4.820;2024-03-08T12:21:54;9.53;;;6.97;;
14141;SDS011;7151;52.246;4.820;2024-03-08T12:24:20;10.90;;;7.00;;
14141;SDS011;7151;52.246;4.820;2024-03-08T12:26:46;10.20;;;7.17;;
14141;SDS011;7151;52.246;4.820;2024-03-08T12:29:25;10.27;;;7.17;;
14141;SDS011;7151;52.246;4.820;2024-03-08T12:31:57;8.93;;;6.77;;
14141;SDS011;7151;52.246;4.820;2024-03-08T12:34:25;11.30;;;6.77;;
14141;SDS011;7151;52.246;4.820;2024-03-08T12:36:54;12.90;;;7.53;;
14141;SDS011;7151;52.246;4.820;2024-03-08T12:39:20;9.63;;;6.70;;
14141;SDS011;7151;52.246;4.820;2024-03-08T12:41:48;10.83;;;6.67;;
14141;SDS011;7151;52.246;4.820;2024-03-08T12:44:17;11.33;;;7.07;;
14141;SDS011;7151;52.246;4.820;2024-03-08T12:46:44;9.97;;;6.70;;
14141;SDS011;7151;52.246;4.820;2024-03-08T12:49:10;8.90;;;6.07;;
14141;SDS011;7151;52.246;4.820;2024-03-08T12:51:37;11.90;;;6.57;;
14141;SDS011;7151;52.246;4.820;2024-03-08T12:54:04;10.80;;;7.00;;
14141;SDS011;7151;52.246;4.820;2024-03-08T12:56:32;9.80;;;6.93;;
14141;SDS011;7151;52.246;4.820;2024-03-08T12:58:59;8.37;;;6.20;;
14141;SDS011;7151;52.246;4.820;2024-03-08T13:01:26;8.00;;;6.10;;
14141;SDS011;7151;52.246;4.820;2024-03-08T13:03:52;12.00;;;6.70;;
14141;SDS011;7151;52.246;4.820;2024-03-08T13:06:18;8.37;;;6.97;;
14141;SDS011;7151;52.246;4.820;2024-03-08T13:08:46;11.80;;;6.60;;
14141;SDS011;7151;52.246;4.820;2024-03-08T13:11:13;9.87;;;6.50;;
14141;SDS011;7151;52.246;4.820;2024-03-08T13:13:39;9.73;;;6.87;;
14141;SDS011;7151;52.246;4.820;2024-03-08T13:16:08;8.93;;;6.03;;
14141;SDS011;7151;52.246;4.820;2024-03-08T13:18:34;8.70;;;6.27;;
14141;SDS011;7151;52.246;4.820;2024-03-08T13:21:00;9.43;;;6.53;;
14141;SDS011;7151;52.246;4.820;2024-03-08T13:23:32;13.93;;;7.17;;
14141;SDS011;7151;52.246;4.820;2024-03-08T13:26:04;8.83;;;6.00;;
14141;SDS011;7151;52.246;4.820;2024-03-08T13:28:30;9.10;;;6.57;;
14141;SDS011;7151;52.246;4.820;2024-03-08T13:30:56;8.97;;;6.63;;
14141;SDS011;7151;52.246;4.820;2024-03-08T13:33:26;8.20;;;6.00;;
14141;SDS011;7151;52.246;4.820;2024-03-08T13:35:52;10.13;;;6.93;;
14141;SDS011;7151;52.246;4.820;2024-03-08T13:38:18;9.10;;;6.50;;
14141;SDS011;7151;52.246;4.820;2024-03-08T13:40:45;11.37;;;6.30;;
14141;SDS011;7151;52.246;4.820;2024-03-08T13:43:13;9.47;;;6.47;;
14141;SDS011;7151;52.246;4.820;2024-03-08T13:45:38;9.47;;;6.33;;
14141;SDS011;7151;52.246;4.820;2024-03-08T13:48:04;9.07;;;6.33;;
14141;SDS011;7151;52.246;4.820;2024-03-08T13:50:30;8.33;;;5.87;;
14141;SDS011;7151;52.246;4.820;2024-03-08T13:52:56;11.33;;;7.00;;
14141;SDS011;7151;52.246;4.820;2024-03-08T13:55:22;8.77;;;5.40;;
14141;SDS011;7151;52.246;4.820;2024-03-08T13:57:48;9.53;;;5.90;;
14141;SDS011;7151;52.246;4.820;2024-03-08T14:00:16;8.33;;;5.97;;
14141;SDS011;7151;52.246;4.820;2024-03-08T14:02:42;9.80;;;6.87;;
14141;SDS011;7151;52.246;4.820;2024-03-08T14:05:10;8.93;;;7.03;;
14141;SDS011;7151;52.246;4.820;2024-03-08T14:07:38;11.90;;;6.60;;
14141;SDS011;7151;52.246;4.820;2024-03-08T14:10:04;8.47;;;5.77;;
14141;SDS011;7151;52.246;4.820;2024-03-08T14:12:31;8.80;;;6.20;;
14141;SDS011;7151;52.246;4.820;2024-03-08T14:14:57;8.40;;;6.07;;
14141;SDS011;7151;52.246;4.820;2024-03-08T14:17:25;11.43;;;6.83;;
14141;SDS011;7151;52.246;4.820;2024-03-08T14:19:52;8.60;;;6.03;;
14141;SDS011;7151;52.246;4.820;2024-03-08T14:22:18;8.20;;;5.90;;
14141;SDS011;7151;52.246;4.820;2024-03-08T14:24:45;9.43;;;6.80;;
14141;SDS011;7151;52.246;4.820;2024-03-08T14:27:10;9.93;;;6.67;;
14141;SDS011;7151;52.246;4.820;2024-03-08T14:29:37;9.53;;;7.40;;
14141;SDS011;7151;52.246;4.820;2024-03-08T14:32:03;9.60;;;6.63;;
14141;SDS011;7151;52.246;4.820;2024-03-08T14:34:31;10.70;;;6.93;;
14141;SDS011;7151;52.246;4.820;2024-03-08T14:36:58;10.50;;;7.10;;
14141;SDS011;7151;52.246;4.820;2024-03-08T14:39:25;11.13;;;7.03;;
14141;SDS011;7151;52.246;4.820;2024-03-08T14:41:54;7.80;;;6.10;;
14141;SDS011;7151;52.246;4.820;2024-03-08T14:44:23;8.27;;;6.57;;
14141;SDS011;7151;52.246;4.820;2024-03-08T14:46:52;10.10;;;6.10;;
14141;SDS011;7151;52.246;4.820;2024-03-08T14:49:18;8.90;;;6.47;;
14141;SDS011;7151;52.246;4.820;2024-03-08T14:51:46;9.60;;;6.40;;
14141;SDS011;7151;52.246;4.820;2024-03-08T14:54:14;13.97;;;7.17;;
14141;SDS011;7151;52.246;4.820;2024-03-08T14:56:40;9.67;;;6.30;;